KFET

Fremont Municipal Airport

Fremont, Nebraska, USA
METAR KFET 191155Z AUTO 19006KT 10SM CLR 04/01 A2964 RMK AO2 T00350011 10062 20035
Observed Flight Rules
Dec-19 @ 11:55 UTC (17 minutes ago) Visual Flight Rules
Wind Visibility Clouds
190° at 6 knots 10 miles
  • Clear skies
Temperatures Readings
Current 4°C / 39°F
Dewpoint 1°C / 34°F
Humidity 81%
Altimeter 29.64" Hg
Pressure 1004 hPa
Elevation 367
METAR KFET 191155Z AUTO 19006KT 10SM CLR 04/01 A2964 RMK AO2 T00350011 10062 20035
Observed Flight Rules
Dec-19 @ 11:55 UTC
(17 minutes ago)
VFR
Wind Visibility
190° at 6 knots 10 miles
Clouds
  • Clear skies
Temperature Dewpoint
4°C / 39°F 1°C / 34°F
Humidity Altimeter Pressure
81% 29.64" Hg 1004 hPa